createdAt,value
2022-08-08T00:01:08.461Z,22.13
2022-08-08T00:03:47.274Z,22.11
2022-08-08T00:06:28.386Z,22.08
2022-08-08T00:09:07.959Z,22.08
2022-08-08T00:12:03.033Z,21.99
2022-08-08T00:14:57.116Z,22.09
2022-08-08T00:17:35.290Z,22.04
2022-08-08T00:20:21.889Z,22.01
2022-08-08T00:22:56.087Z,21.98
2022-08-08T00:25:44.778Z,21.92
2022-08-08T00:28:34.051Z,21.93
2022-08-08T00:32:29.343Z,21.92
2022-08-08T00:34:20.170Z,21.85
2022-08-08T00:36:54.892Z,21.76
2022-08-08T00:41:06.896Z,21.77
2022-08-08T00:42:43.664Z,21.70
2022-08-08T00:45:38.261Z,21.69
2022-08-08T00:48:59.300Z,21.62
2022-08-08T00:52:00.256Z,21.59
2022-08-08T00:54:53.155Z,21.59
2022-08-08T00:57:58.048Z,21.54
2022-08-08T01:00:27.871Z,21.58
2022-08-08T01:04:01.734Z,21.48
2022-08-08T01:07:07.299Z,21.41
2022-08-08T01:10:05.945Z,21.39
2022-08-08T01:12:59.054Z,21.30
2022-08-08T01:15:57.266Z,21.30
2022-08-08T01:19:02.740Z,21.25
2022-08-08T01:22:13.412Z,21.30
2022-08-08T01:25:02.362Z,21.16
2022-08-08T01:28:07.707Z,21.12
2022-08-08T01:32:03.038Z,21.24
2022-08-08T01:34:37.229Z,21.22
2022-08-08T01:37:57.774Z,21.16
2022-08-08T01:40:26.185Z,21.08
2022-08-08T01:43:02.733Z,21.00
2022-08-08T01:45:41.848Z,20.94
2022-08-08T01:48:23.297Z,21.02
2022-08-08T01:51:31.872Z,20.97
2022-08-08T01:55:19.405Z,21.06
2022-08-08T01:57:05.638Z,21.05
2022-08-08T02:00:02.775Z,21.01
2022-08-08T02:02:40.068Z,20.93
2022-08-08T02:05:23.371Z,21.03
2022-08-08T02:08:02.485Z,20.97
2022-08-08T02:10:44.904Z,20.95
2022-08-08T02:13:52.569Z,20.87
2022-08-08T02:16:21.337Z,20.92
2022-08-08T02:18:58.965Z,21.04
2022-08-08T02:21:48.934Z,20.99
2022-08-08T02:24:22.866Z,21.13
2022-08-08T02:26:55.407Z,21.03
2022-08-08T02:29:41.709Z,21.15
2022-08-08T02:32:33.423Z,20.99
2022-08-08T02:35:28.259Z,21.09
2022-08-08T02:38:13.639Z,20.86
2022-08-08T02:40:45.303Z,20.81
2022-08-08T02:44:37.849Z,20.76
2022-08-08T02:46:50.641Z,20.66
2022-08-08T02:49:48.271Z,20.78
2022-08-08T02:52:39.655Z,20.74
2022-08-08T02:55:21.660Z,20.52
2022-08-08T02:58:26.707Z,20.62
2022-08-08T03:01:08.766Z,20.45
2022-08-08T03:05:02.470Z,20.51
2022-08-08T03:07:57.982Z,20.43
2022-08-08T03:10:53.592Z,20.52
2022-08-08T03:15:57.189Z,20.50
2022-08-08T03:16:54.788Z,20.34
2022-08-08T03:19:51.561Z,20.24
2022-08-08T03:22:37.728Z,20.12
2022-08-08T03:25:14.644Z,20.18
2022-08-08T03:27:56.616Z,20.17
2022-08-08T03:30:25.414Z,20.07
2022-08-08T03:33:55.907Z,20.12
2022-08-08T03:35:58.598Z,20.06
2022-08-08T03:38:57.106Z,20.17
2022-08-08T03:41:32.166Z,20.10
2022-08-08T03:44:06.587Z,20.05
2022-08-08T03:46:44.546Z,20.20
2022-08-08T03:49:58.887Z,20.13
2022-08-08T03:52:07.952Z,20.17
2022-08-08T03:55:02.629Z,20.13
2022-08-08T03:58:32.863Z,20.12
2022-08-08T04:00:22.133Z,20.06
2022-08-08T04:02:58.626Z,20.17
2022-08-08T04:05:28.828Z,20.27
2022-08-08T04:07:57.829Z,20.23
2022-08-08T04:10:26.042Z,20.16
2022-08-08T04:13:17.320Z,20.07
2022-08-08T04:16:03.621Z,20.06
2022-08-08T04:18:39.324Z,20.03
2022-08-08T04:21:12.394Z,20.13
2022-08-08T04:24:11.982Z,20.07
2022-08-08T04:26:40.115Z,19.98
2022-08-08T04:29:17.515Z,20.15
2022-08-08T04:31:59.185Z,19.99
2022-08-08T04:34:32.036Z,20.20
2022-08-08T04:37:01.034Z,20.25
2022-08-08T04:40:04.092Z,19.97
2022-08-08T04:42:19.691Z,20.18
2022-08-08T04:44:48.695Z,20.22
2022-08-08T04:47:17.037Z,20.39
2022-08-08T04:50:01.084Z,20.26
2022-08-08T04:52:35.022Z,20.36
2022-08-08T04:55:04.512Z,20.52
2022-08-08T04:57:34.471Z,20.62
2022-08-08T05:00:06.066Z,20.68
2022-08-08T05:02:34.379Z,20.57
2022-08-08T05:05:03.085Z,20.58
2022-08-08T05:07:42.041Z,20.70
2022-08-08T05:10:12.489Z,20.70
2022-08-08T05:12:59.771Z,20.68
2022-08-08T05:15:31.633Z,20.82
2022-08-08T05:18:18.215Z,20.79
2022-08-08T05:20:50.138Z,20.64
2022-08-08T05:23:19.267Z,21.22
2022-08-08T05:25:48.725Z,21.09
2022-08-08T05:28:48.431Z,21.12
2022-08-08T05:31:19.388Z,21.14
2022-08-08T05:33:54.277Z,21.03
2022-08-08T05:36:28.002Z,21.01
2022-08-08T05:38:58.901Z,21.19
2022-08-08T05:41:27.822Z,21.10
2022-08-08T05:44:03.272Z,21.21
2022-08-08T05:46:33.964Z,21.38
2022-08-08T05:49:01.981Z,21.45
2022-08-08T05:51:47.943Z,21.48
2022-08-08T05:54:27.654Z,21.48
2022-08-08T05:57:08.091Z,21.66
2022-08-08T05:59:58.594Z,21.77
2022-08-08T06:02:48.014Z,21.77
2022-08-08T06:05:33.710Z,21.94
2022-08-08T06:08:09.908Z,21.91
2022-08-08T06:10:49.885Z,22.02
2022-08-08T06:13:22.863Z,21.84
2022-08-08T06:15:53.934Z,21.60
2022-08-08T06:18:25.445Z,22.03
2022-08-08T06:20:57.139Z,22.07
2022-08-08T06:23:29.148Z,22.35
2022-08-08T06:26:39.110Z,22.35
2022-08-08T06:29:26.833Z,22.64
2022-08-08T06:32:10.406Z,22.60
2022-08-08T06:34:40.875Z,22.53
2022-08-08T06:37:25.035Z,22.44
2022-08-08T06:39:56.705Z,22.80
2022-08-08T06:42:25.333Z,22.94
2022-08-08T06:44:55.913Z,23.12
2022-08-08T06:47:33.499Z,22.97
2022-08-08T06:50:04.289Z,22.94
2022-08-08T06:52:32.890Z,22.92
2022-08-08T06:55:01.775Z,23.34
2022-08-08T06:57:44.237Z,23.49
2022-08-08T07:00:17.677Z,23.59
2022-08-08T07:02:59.499Z,23.72
2022-08-08T07:05:40.435Z,23.88
2022-08-08T07:08:12.508Z,23.83
2022-08-08T07:10:52.541Z,23.82
2022-08-08T07:13:25.157Z,24.20
2022-08-08T07:16:05.401Z,24.22
2022-08-08T07:18:43.588Z,24.46
2022-08-08T07:21:20.418Z,24.34
2022-08-08T07:24:01.983Z,24.00
2022-08-08T07:26:35.648Z,24.02
2022-08-08T07:29:08.245Z,24.28
2022-08-08T07:31:39.835Z,24.63
2022-08-08T07:34:08.868Z,24.98
2022-08-08T07:36:48.003Z,25.21
2022-08-08T07:39:19.158Z,25.32
2022-08-08T07:42:04.394Z,25.03
2022-08-08T07:44:37.324Z,24.87
2022-08-08T07:47:08.748Z,25.08
2022-08-08T07:49:40.020Z,25.51
2022-08-08T07:52:13.278Z,25.60
2022-08-08T07:54:52.714Z,25.32
2022-08-08T07:57:25.676Z,25.64
2022-08-08T08:00:00.448Z,25.86
2022-08-08T08:02:38.531Z,26.21
2022-08-08T08:05:15.346Z,26.24
2022-08-08T08:07:45.945Z,26.38
2022-08-08T08:10:15.175Z,26.54
2022-08-08T08:12:48.946Z,26.64
2022-08-08T08:15:21.744Z,26.28
2022-08-08T08:17:55.954Z,25.60
2022-08-08T08:20:30.207Z,26.21
2022-08-08T08:22:59.642Z,26.60
2022-08-08T08:25:42.503Z,26.89
2022-08-08T08:28:21.474Z,26.29
2022-08-08T08:30:51.998Z,26.13
2022-08-08T08:33:20.954Z,26.31
2022-08-08T08:36:18.522Z,26.58
2022-08-08T08:38:39.333Z,27.03
2022-08-08T08:41:20.023Z,27.40
2022-08-08T08:43:50.939Z,27.62
2022-08-08T08:46:25.925Z,27.67
2022-08-08T08:48:54.699Z,27.85
2022-08-08T08:51:22.677Z,27.61
2022-08-08T08:53:55.968Z,26.59
2022-08-08T08:56:28.413Z,27.70
2022-08-08T08:58:58.131Z,28.28
2022-08-08T09:01:28.898Z,29.01
2022-08-08T09:04:01.423Z,29.32
2022-08-08T09:06:34.650Z,29.98
2022-08-08T09:09:07.389Z,29.91
2022-08-08T09:12:01.388Z,29.83
2022-08-08T09:14:30.186Z,28.85
2022-08-08T09:16:57.772Z,28.48
2022-08-08T09:22:02.429Z,28.56
2022-08-08T09:22:25.928Z,28.93
2022-08-08T09:24:58.402Z,29.27
2022-08-08T09:27:41.894Z,29.29
2022-08-08T09:30:17.346Z,29.51
2022-08-08T09:33:11.842Z,29.63
2022-08-08T09:35:37.489Z,29.68
2022-08-08T09:38:17.543Z,29.70
2022-08-08T09:40:55.698Z,29.09
2022-08-08T09:44:04.976Z,28.98
2022-08-08T09:46:25.422Z,29.40
2022-08-08T09:49:04.280Z,29.14
2022-08-08T09:52:06.429Z,29.32
2022-08-08T09:54:38.764Z,29.30
2022-08-08T09:57:16.411Z,28.93
2022-08-08T09:59:53.230Z,29.16
2022-08-08T10:02:36.685Z,29.45
2022-08-08T10:05:07.146Z,29.37
2022-08-08T10:08:01.650Z,29.66
2022-08-08T10:10:31.737Z,29.48
2022-08-08T10:13:14.037Z,29.45
2022-08-08T10:15:42.378Z,29.60
2022-08-08T10:18:38.694Z,29.88
2022-08-08T10:21:25.091Z,29.82
2022-08-08T10:23:56.013Z,29.59
2022-08-08T10:26:40.513Z,29.72
2022-08-08T10:29:24.949Z,28.63
2022-08-08T10:32:15.917Z,28.05
2022-08-08T10:34:58.521Z,27.81
2022-08-08T10:37:28.408Z,27.61
2022-08-08T10:39:58.695Z,27.65
2022-08-08T10:42:34.124Z,27.77
2022-08-08T10:45:08.799Z,28.13
2022-08-08T10:47:43.148Z,28.44
2022-08-08T10:50:15.774Z,28.66
2022-08-08T10:52:44.431Z,28.49
2022-08-08T10:55:15.590Z,28.94
2022-08-08T10:58:05.723Z,28.37
2022-08-08T11:00:48.581Z,28.87
2022-08-08T11:03:36.508Z,29.17
2022-08-08T11:06:12.257Z,29.55
2022-08-08T11:08:50.099Z,29.99
2022-08-08T11:11:32.393Z,29.83
2022-08-08T11:14:12.413Z,30.14
2022-08-08T11:16:47.251Z,31.14
2022-08-08T11:19:15.663Z,31.48
2022-08-08T11:21:55.728Z,31.40
2022-08-08T11:24:26.550Z,31.30
2022-08-08T11:26:57.509Z,32.30
2022-08-08T11:29:41.329Z,32.20
2022-08-08T11:32:19.110Z,32.08
2022-08-08T11:38:07.381Z,31.14
2022-08-08T11:40:26.591Z,30.21
2022-08-08T11:42:55.904Z,30.12
2022-08-08T11:45:23.888Z,30.09
2022-08-08T11:48:05.072Z,29.96
2022-08-08T11:50:37.657Z,29.76
2022-08-08T11:53:06.128Z,29.94
2022-08-08T11:55:36.695Z,30.25
2022-08-08T11:58:08.931Z,30.69
2022-08-08T12:00:47.166Z,31.19
2022-08-08T12:03:22.515Z,31.35
2022-08-08T12:05:51.849Z,31.07
2022-08-08T12:08:31.963Z,30.66
2022-08-08T12:11:02.265Z,30.50
2022-08-08T12:13:38.379Z,30.94
2022-08-08T12:16:28.265Z,31.24
2022-08-08T12:19:05.917Z,31.76
2022-08-08T12:22:00.296Z,32.06
2022-08-08T12:24:27.944Z,32.15
2022-08-08T12:26:57.039Z,31.77
2022-08-08T12:29:40.692Z,31.56
2022-08-08T12:32:16.843Z,31.52
2022-08-08T12:34:52.919Z,31.89
2022-08-08T12:37:41.334Z,31.65
2022-08-08T12:40:23.935Z,31.61
2022-08-08T12:42:53.435Z,31.69
2022-08-08T12:45:58.701Z,31.96
2022-08-08T12:48:37.467Z,31.85
2022-08-08T12:51:11.094Z,31.14
2022-08-08T12:53:45.881Z,30.88
2022-08-08T12:56:19.850Z,31.58
2022-08-08T12:58:54.549Z,31.71
2022-08-08T13:01:35.039Z,31.68
2022-08-08T13:04:18.312Z,31.90
2022-08-08T13:07:00.956Z,31.96
2022-08-08T13:10:02.052Z,31.92
2022-08-08T13:12:29.101Z,31.85
2022-08-08T13:15:09.351Z,31.73
2022-08-08T13:18:08.973Z,31.71
2022-08-08T13:20:27.481Z,31.66
2022-08-08T13:25:50.385Z,31.79
2022-08-08T13:28:32.041Z,31.79
2022-08-08T13:31:01.835Z,31.61
2022-08-08T13:33:42.092Z,31.80
2022-08-08T13:36:11.767Z,30.98
2022-08-08T13:38:41.321Z,30.72
2022-08-08T13:41:16.457Z,31.39
2022-08-08T13:43:46.601Z,31.58
2022-08-08T13:46:26.807Z,31.62
2022-08-08T13:49:11.965Z,31.71
2022-08-08T13:51:53.932Z,32.09
2022-08-08T13:54:29.598Z,31.80
2022-08-08T13:57:08.670Z,31.84
2022-08-08T13:59:40.624Z,31.57
2022-08-08T14:02:30.270Z,31.61
2022-08-08T14:05:09.572Z,31.79
2022-08-08T14:07:53.122Z,31.72
2022-08-08T14:10:33.588Z,31.29
2022-08-08T14:13:20.729Z,31.79
2022-08-08T14:16:03.031Z,32.01
2022-08-08T14:18:34.839Z,32.05
2022-08-08T14:21:12.567Z,32.21
2022-08-08T14:24:07.015Z,32.43
2022-08-08T14:26:33.179Z,32.36
2022-08-08T14:29:01.604Z,32.11
2022-08-08T14:32:05.818Z,32.26
2022-08-08T14:34:23.317Z,32.06
2022-08-08T14:36:57.803Z,32.16
2022-08-08T14:39:25.439Z,32.19
2022-08-08T14:42:16.751Z,32.04
2022-08-08T14:44:54.760Z,31.99
2022-08-08T14:47:23.294Z,31.89
2022-08-08T14:50:06.489Z,31.88
2022-08-08T14:52:43.795Z,31.84
2022-08-08T14:55:16.420Z,31.85
2022-08-08T14:58:00.864Z,31.93
2022-08-08T15:00:35.241Z,32.00
2022-08-08T15:03:15.484Z,31.80
2022-08-08T15:05:54.297Z,31.77
2022-08-08T15:08:34.314Z,31.79
2022-08-08T15:11:04.454Z,31.85
2022-08-08T15:13:40.042Z,31.56
2022-08-08T15:16:12.095Z,32.02
2022-08-08T15:18:49.963Z,31.91
2022-08-08T15:21:19.378Z,31.87
2022-08-08T15:23:50.875Z,31.73
2022-08-08T15:26:19.227Z,31.59
2022-08-08T15:28:53.018Z,31.49
2022-08-08T15:31:25.938Z,31.57
2022-08-08T15:34:08.753Z,31.51
2022-08-08T15:36:56.606Z,31.61
2022-08-08T15:39:24.285Z,31.52
2022-08-08T15:41:53.446Z,31.46
2022-08-08T15:44:23.037Z,31.58
2022-08-08T15:46:51.267Z,31.45
2022-08-08T15:49:20.834Z,31.40
2022-08-08T15:51:49.950Z,31.63
2022-08-08T15:54:37.680Z,31.60
2022-08-08T15:57:07.488Z,31.58
2022-08-08T16:00:05.258Z,31.48
2022-08-08T16:02:30.686Z,31.42
2022-08-08T16:04:59.409Z,31.32
2022-08-08T16:07:39.592Z,31.50
2022-08-08T16:13:10.889Z,31.33
2022-08-08T16:13:34.804Z,31.23
2022-08-08T16:16:12.810Z,31.17
2022-08-08T16:18:56.175Z,30.72
2022-08-08T16:21:27.754Z,31.20
2022-08-08T16:23:56.343Z,31.28
2022-08-08T16:26:34.516Z,31.36
2022-08-08T16:29:15.790Z,31.18
2022-08-08T16:31:51.448Z,31.07
2022-08-08T16:34:24.824Z,31.08
2022-08-08T16:36:52.848Z,30.93
2022-08-08T16:39:49.042Z,30.85
2022-08-08T16:42:18.004Z,30.80
2022-08-08T16:44:47.367Z,30.96
2022-08-08T16:47:40.746Z,30.97
2022-08-08T16:50:13.913Z,30.97
2022-08-08T16:55:04.272Z,30.71
2022-08-08T16:55:53.006Z,30.80
2022-08-08T16:58:20.441Z,30.70
2022-08-08T17:00:51.510Z,30.57
2022-08-08T17:03:25.163Z,30.47
2022-08-08T17:06:35.453Z,30.37
2022-08-08T17:08:59.175Z,30.61
2022-08-08T17:11:28.194Z,30.58
2022-08-08T17:14:17.789Z,30.54
2022-08-08T17:16:57.755Z,30.09
2022-08-08T17:19:28.975Z,29.97
2022-08-08T17:21:57.369Z,29.88
2022-08-08T17:24:27.660Z,29.79
2022-08-08T17:26:57.878Z,29.73
2022-08-08T17:29:26.527Z,29.61
2022-08-08T17:31:54.468Z,29.50
2022-08-08T17:34:48.382Z,29.46
2022-08-08T17:37:14.467Z,29.40
2022-08-08T17:40:03.516Z,29.62
2022-08-08T17:42:29.747Z,29.32
2022-08-08T17:44:58.717Z,29.73
2022-08-08T17:47:40.140Z,29.28
2022-08-08T17:50:10.916Z,29.03
2022-08-08T17:52:43.089Z,28.94
2022-08-08T17:56:05.974Z,28.74
2022-08-08T17:58:01.883Z,28.77
2022-08-08T18:00:30.801Z,28.73
2022-08-08T18:03:08.417Z,28.68
2022-08-08T18:05:44.119Z,28.58
2022-08-08T18:08:25.239Z,28.64
2022-08-08T18:11:07.748Z,28.45
2022-08-08T18:13:41.610Z,28.47
2022-08-08T18:16:10.103Z,28.37
2022-08-08T18:18:42.992Z,28.27
2022-08-08T18:21:34.651Z,28.21
2022-08-08T18:24:19.754Z,28.28
2022-08-08T18:26:53.840Z,28.20
2022-08-08T18:29:29.508Z,28.06
2022-08-08T18:31:58.370Z,27.99
2022-08-08T18:34:27.628Z,27.88
2022-08-08T18:36:57.059Z,27.91
2022-08-08T18:39:28.049Z,27.86
2022-08-08T18:42:03.325Z,27.85
2022-08-08T18:44:32.895Z,27.79
2022-08-08T18:47:02.605Z,27.56
2022-08-08T18:49:32.674Z,27.53
2022-08-08T18:52:18.397Z,27.57
2022-08-08T18:55:00.450Z,27.48
2022-08-08T18:57:40.866Z,27.50
2022-08-08T19:00:16.525Z,27.36
2022-08-08T19:02:55.910Z,27.17
2022-08-08T19:05:31.834Z,27.17
2022-08-08T19:08:09.230Z,27.11
2022-08-08T19:10:37.464Z,26.97
2022-08-08T19:13:10.796Z,26.95
2022-08-08T19:15:51.905Z,26.83
2022-08-08T19:18:32.522Z,26.76
2022-08-08T19:21:29.075Z,26.72
2022-08-08T19:24:00.139Z,26.61
2022-08-08T19:26:30.232Z,26.51
2022-08-08T19:28:59.278Z,26.47
2022-08-08T19:31:31.405Z,26.00
2022-08-08T19:34:15.245Z,25.83
2022-08-08T19:36:52.068Z,25.61
2022-08-08T19:39:22.964Z,25.47
2022-08-08T19:41:51.078Z,25.66
2022-08-08T19:44:42.447Z,25.56
2022-08-08T19:47:07.122Z,25.41
2022-08-08T19:49:37.850Z,25.16
2022-08-08T19:52:07.000Z,25.13
2022-08-08T19:54:36.401Z,25.14
2022-08-08T19:57:07.583Z,25.21
2022-08-08T19:59:35.702Z,25.14
2022-08-08T20:02:05.063Z,24.94
2022-08-08T20:04:33.288Z,24.97
2022-08-08T20:07:05.613Z,24.90
2022-08-08T20:09:56.581Z,24.84
2022-08-08T20:12:33.044Z,24.74
2022-08-08T20:15:16.875Z,24.73
2022-08-08T20:17:45.956Z,24.72
2022-08-08T20:20:15.959Z,24.68
2022-08-08T20:22:52.630Z,24.92
2022-08-08T20:25:29.861Z,24.55
2022-08-08T20:28:06.886Z,24.65
2022-08-08T20:30:55.977Z,24.38
2022-08-08T20:35:58.446Z,24.22
2022-08-08T20:38:32.930Z,24.09
2022-08-08T20:41:17.682Z,24.11
2022-08-08T20:43:49.713Z,24.04
2022-08-08T20:46:20.838Z,24.02
2022-08-08T20:48:48.972Z,23.94
2022-08-08T20:51:18.256Z,23.88
2022-08-08T20:53:59.785Z,23.75
2022-08-08T20:56:35.723Z,23.87
2022-08-08T20:59:05.983Z,23.77
2022-08-08T21:01:34.446Z,23.64
2022-08-08T21:04:23.390Z,23.65
2022-08-08T21:06:53.448Z,23.54
2022-08-08T21:09:21.863Z,23.55
2022-08-08T21:12:02.736Z,23.44
2022-08-08T21:14:34.710Z,23.44
2022-08-08T21:17:06.107Z,23.50
2022-08-08T21:19:45.838Z,23.42
2022-08-08T21:22:15.955Z,23.38
2022-08-08T21:24:52.697Z,23.28
2022-08-08T21:27:38.622Z,23.36
2022-08-08T21:30:10.918Z,23.37
2022-08-08T21:32:51.789Z,23.29
2022-08-08T21:36:13.776Z,23.27
2022-08-08T21:38:16.672Z,23.18
2022-08-08T21:40:55.196Z,23.14
2022-08-08T21:43:33.185Z,23.17
2022-08-08T21:48:04.939Z,23.11
2022-08-08T21:48:51.724Z,23.04
2022-08-08T21:54:16.842Z,22.96
2022-08-08T21:54:27.093Z,22.95
2022-08-08T21:56:59.170Z,22.94
2022-08-08T22:00:03.197Z,22.96
2022-08-08T22:02:19.655Z,22.86
2022-08-08T22:04:50.839Z,22.82
2022-08-08T22:07:19.219Z,22.73
2022-08-08T22:09:46.828Z,22.69
2022-08-08T22:12:17.322Z,22.65
2022-08-08T22:14:47.335Z,22.65
2022-08-08T22:17:19.138Z,22.68
2022-08-08T22:20:11.223Z,22.69
2022-08-08T22:22:38.162Z,22.62
2022-08-08T22:25:12.314Z,22.62
2022-08-08T22:28:04.231Z,22.68
2022-08-08T22:30:41.331Z,22.64
2022-08-08T22:34:05.046Z,22.50
2022-08-08T22:36:05.663Z,22.48
2022-08-08T22:38:48.350Z,22.51
2022-08-08T22:41:21.813Z,22.35
2022-08-08T22:44:02.064Z,22.37
2022-08-08T22:46:33.206Z,22.43
2022-08-08T22:49:00.997Z,22.34
2022-08-08T22:51:29.243Z,22.36
2022-08-08T22:54:33.311Z,22.24
2022-08-08T22:56:50.451Z,22.20
2022-08-08T22:59:18.814Z,22.29
2022-08-08T23:02:02.442Z,22.24
2022-08-08T23:04:32.423Z,22.05
2022-08-08T23:07:03.046Z,22.09
2022-08-08T23:09:39.066Z,21.96
2022-08-08T23:12:28.676Z,22.13
2022-08-08T23:14:59.796Z,21.94
2022-08-08T23:17:54.538Z,21.94
2022-08-08T23:20:27.366Z,21.86
2022-08-08T23:22:56.709Z,21.85
2022-08-08T23:25:24.469Z,21.84
2022-08-08T23:27:54.674Z,21.77
2022-08-08T23:30:22.791Z,21.77
2022-08-08T23:32:53.019Z,21.79
2022-08-08T23:35:20.634Z,21.72
2022-08-08T23:38:02.073Z,21.69
2022-08-08T23:40:31.266Z,21.64
2022-08-08T23:43:04.493Z,21.67
2022-08-08T23:49:02.732Z,21.61
2022-08-08T23:49:07.326Z,21.59
2022-08-08T23:51:12.789Z,21.50
2022-08-08T23:54:39.117Z,21.47
2022-08-08T23:56:46.641Z,21.46
2022-08-08T23:59:17.559Z,21.48
